Time;durP1;ratioP1;P1;durP2;ratioP2;P2;SDS_P1;SDS_P2;PMS_P1;PMS_P2;Temp;Humidity;BMP_temperature;BMP_pressure;BME280_temperature;BME280_humidity;BME280_pressure;Samples;Min_cycle;Max_cycle;Signal;HPM_P1;HPM_P2
2022/08/24 00:01:37;;;;;;;;;2.00;2.00;;;;;;;;5100385;27;45374;-78
2022/08/24 00:04:02;;;;;;;;;2.33;2.33;;;;;;;;5100718;27;45247;-77
2022/08/24 00:06:28;;;;;;;;;3.00;3.00;;;;;;;;5099651;27;45417;-77
2022/08/24 00:08:54;;;;;;;;;3.00;3.00;;;;;;;;5100149;27;47395;-77
2022/08/24 00:11:20;;;;;;;;;3.67;3.67;;;;;;;;5100645;27;45414;-77
2022/08/24 00:13:46;;;;;;;;;2.00;2.00;;;;;;;;5100516;27;45346;-78
2022/08/24 00:16:11;;;;;;;;;3.00;3.00;;;;;;;;5100371;27;45436;-77
2022/08/24 00:18:38;;;;;;;;;2.33;2.33;;;;;;;;5100290;27;46654;-77
2022/08/24 00:21:03;;;;;;;;;4.67;3.00;;;;;;;;5100148;27;45432;-77
2022/08/24 00:23:29;;;;;;;;;2.00;2.00;;;;;;;;5099395;27;45686;-77
2022/08/24 00:25:54;;;;;;;;;2.00;2.00;;;;;;;;5100593;27;45513;-78
2022/08/24 00:28:20;;;;;;;;;3.00;3.00;;;;;;;;5099877;27;45601;-78
2022/08/24 00:30:45;;;;;;;;;3.00;3.00;;;;;;;;5100255;27;45203;-77
2022/08/24 00:33:10;;;;;;;;;2.00;2.00;;;;;;;;5100206;27;45697;-77
2022/08/24 00:35:35;;;;;;;;;2.67;2.67;;;;;;;;5100532;27;45138;-78
2022/08/24 00:38:00;;;;;;;;;3.00;3.00;;;;;;;;5098800;27;45637;-77
2022/08/24 00:40:28;;;;;;;;;3.67;3.67;;;;;;;;5099964;27;45409;-77
2022/08/24 00:42:54;;;;;;;;;3.33;3.00;;;;;;;;5100136;27;45264;-77
2022/08/24 00:45:20;;;;;;;;;4.00;4.00;;;;;;;;5100198;27;45947;-78
2022/08/24 00:47:48;;;;;;;;;2.00;2.00;;;;;;;;5099581;27;46487;-77
2022/08/24 00:50:31;;;;;;;;;3.00;3.00;;;;;;;;5099849;27;46387;-77
2022/08/24 00:52:58;;;;;;;;;2.00;2.00;;;;;;;;5099914;27;45429;-77
2022/08/24 00:55:35;;;;;;;;;2.33;2.33;;;;;;;;5099679;27;45425;-77
2022/08/24 00:58:03;;;;;;;;;3.00;2.00;;;;;;;;5099409;27;46475;-77
2022/08/24 01:00:33;;;;;;;;;1.67;1.67;;;;;;;;5099057;27;45496;-77
2022/08/24 01:03:03;;;;;;;;;1.00;1.00;;;;;;;;5099596;27;45360;-78
2022/08/24 01:05:29;;;;;;;;;2.67;2.00;;;;;;;;5099806;27;45522;-77
2022/08/24 01:07:54;;;;;;;;;2.00;2.00;;;;;;;;5099185;27;46657;-77
2022/08/24 01:10:23;;;;;;;;;2.00;2.00;;;;;;;;5099232;27;45545;-77
2022/08/24 01:12:50;;;;;;;;;2.00;2.00;;;;;;;;5098690;27;45454;-77
2022/08/24 01:15:16;;;;;;;;;2.33;2.33;;;;;;;;5099655;27;45481;-77
2022/08/24 01:20:25;;;;;;;;;3.00;3.00;;;;;;;;5099397;27;45205;-76
2022/08/24 01:23:09;;;;;;;;;2.00;2.00;;;;;;;;5099203;27;45365;-78
2022/08/24 01:25:36;;;;;;;;;3.33;2.33;;;;;;;;5099400;27;45430;-78
2022/08/24 01:28:11;;;;;;;;;2.00;2.00;;;;;;;;5099073;27;45793;-78
2022/08/24 01:30:36;;;;;;;;;2.67;2.67;;;;;;;;5098533;27;45170;-77
2022/08/24 01:33:04;;;;;;;;;5.00;3.33;;;;;;;;5099229;27;45449;-77
2022/08/24 01:35:30;;;;;;;;;3.67;2.00;;;;;;;;5099238;27;45417;-78
2022/08/24 01:37:56;;;;;;;;;4.33;3.00;;;;;;;;5099050;27;46389;-77
2022/08/24 01:40:24;;;;;;;;;7.00;2.00;;;;;;;;5098902;27;45465;-77
2022/08/24 01:42:51;;;;;;;;;2.33;2.33;;;;;;;;5099244;27;45298;-78
2022/08/24 01:45:17;;;;;;;;;2.00;2.00;;;;;;;;5099188;27;45554;-77
2022/08/24 01:47:42;;;;;;;;;2.00;2.00;;;;;;;;5098855;27;46270;-77
2022/08/24 01:50:07;;;;;;;;;26.67;24.33;;;;;;;;5097950;27;46868;-77
2022/08/24 01:52:33;;;;;;;;;2.00;2.00;;;;;;;;5098955;27;45498;-78
2022/08/24 01:54:59;;;;;;;;;3.33;3.00;;;;;;;;5098992;27;45154;-77
2022/08/24 01:57:25;;;;;;;;;2.00;2.00;;;;;;;;5098637;27;46534;-77
2022/08/24 01:59:50;;;;;;;;;2.00;2.00;;;;;;;;5098500;27;45317;-75
2022/08/24 02:02:22;;;;;;;;;3.00;2.00;;;;;;;;5098798;27;45449;-77
2022/08/24 02:04:48;;;;;;;;;1.00;1.00;;;;;;;;5098908;27;45189;-77
2022/08/24 02:07:13;;;;;;;;;1.00;1.00;;;;;;;;5097404;27;45497;-76
2022/08/24 02:09:39;;;;;;;;;2.00;1.67;;;;;;;;5098602;27;45445;-76
2022/08/24 02:12:04;;;;;;;;;2.00;2.00;;;;;;;;5097549;27;45238;-77
2022/08/24 02:14:29;;;;;;;;;3.00;3.00;;;;;;;;5099034;27;45307;-76
2022/08/24 02:16:56;;;;;;;;;2.33;2.00;;;;;;;;5098224;27;46034;-76
2022/08/24 02:19:21;;;;;;;;;3.67;1.67;;;;;;;;5097446;27;45413;-76
2022/08/24 02:21:47;;;;;;;;;4.00;2.67;;;;;;;;5097692;27;45354;-76
2022/08/24 02:24:12;;;;;;;;;2.00;2.00;;;;;;;;5098418;27;45432;-75
2022/08/24 02:26:37;;;;;;;;;1.00;1.00;;;;;;;;5098355;27;46546;-77
2022/08/24 02:29:03;;;;;;;;;2.67;1.67;;;;;;;;5098211;27;45379;-76
2022/08/24 02:31:28;;;;;;;;;3.00;3.00;;;;;;;;5098189;27;45446;-76
2022/08/24 02:33:53;;;;;;;;;2.33;2.33;;;;;;;;5098726;27;45342;-77
2022/08/24 02:36:18;;;;;;;;;3.67;2.00;;;;;;;;5098225;27;46157;-76
2022/08/24 02:38:44;;;;;;;;;7.33;5.67;;;;;;;;5097229;27;45351;-76
2022/08/24 02:41:10;;;;;;;;;4.00;3.00;;;;;;;;5098096;27;45282;-76
2022/08/24 02:43:35;;;;;;;;;5.33;4.00;;;;;;;;5098437;27;45300;-76
2022/08/24 02:46:00;;;;;;;;;4.00;4.00;;;;;;;;5097933;27;47303;-75
2022/08/24 02:48:26;;;;;;;;;6.67;4.00;;;;;;;;5098090;27;45279;-77
2022/08/24 02:50:52;;;;;;;;;4.00;2.67;;;;;;;;5098210;27;45303;-76
2022/08/24 02:53:19;;;;;;;;;2.33;2.33;;;;;;;;5098384;27;45216;-76
2022/08/24 02:55:45;;;;;;;;;3.00;3.00;;;;;;;;5097664;27;45434;-76
2022/08/24 02:58:11;;;;;;;;;2.00;2.00;;;;;;;;5097055;27;45506;-76
2022/08/24 03:00:37;;;;;;;;;4.00;4.00;;;;;;;;5097988;27;45389;-76
2022/08/24 03:03:02;;;;;;;;;3.00;3.00;;;;;;;;5098018;27;45385;-77
2022/08/24 03:05:28;;;;;;;;;3.33;3.33;;;;;;;;5097718;27;45521;-76
2022/08/24 03:07:53;;;;;;;;;7.00;3.00;;;;;;;;5097669;27;45306;-75
2022/08/24 03:10:18;;;;;;;;;2.00;2.00;;;;;;;;5097860;27;45402;-76
2022/08/24 03:12:44;;;;;;;;;4.00;4.00;;;;;;;;5097919;27;45371;-77
2022/08/24 03:15:10;;;;;;;;;3.00;3.00;;;;;;;;5096644;27;46614;-77
2022/08/24 03:17:36;;;;;;;;;1.67;1.67;;;;;;;;5097407;27;45322;-77
2022/08/24 03:20:03;;;;;;;;;3.00;2.67;;;;;;;;5097641;27;45445;-77
2022/08/24 03:22:29;;;;;;;;;1.67;1.67;;;;;;;;5098094;27;45354;-77
2022/08/24 03:24:54;;;;;;;;;4.00;3.00;;;;;;;;5100991;27;46365;-76
2022/08/24 03:27:19;;;;;;;;;4.00;3.00;;;;;;;;5101251;27;45323;-76
2022/08/24 03:29:44;;;;;;;;;2.67;2.67;;;;;;;;5105943;27;45486;-76
2022/08/24 03:32:10;;;;;;;;;4.00;3.67;;;;;;;;5113502;27;45417;-76
2022/08/24 03:34:35;;;;;;;;;2.00;2.00;;;;;;;;5115442;27;45300;-77
2022/08/24 03:37:01;;;;;;;;;2.50;2.50;;;;;;;;5121691;27;45352;-76
2022/08/24 03:39:26;;;;;;;;;2.67;2.67;;;;;;;;5121826;27;45271;-77
2022/08/24 03:41:51;;;;;;;;;3.33;2.00;;;;;;;;5121605;27;45289;-77
2022/08/24 03:44:16;;;;;;;;;6.00;3.00;;;;;;;;5121472;27;45318;-76
2022/08/24 03:46:42;;;;;;;;;8.33;7.33;;;;;;;;5121349;27;45452;-77
2022/08/24 03:49:08;;;;;;;;;12.00;9.33;;;;;;;;5111909;27;45342;-76
2022/08/24 03:51:34;;;;;;;;;8.00;5.00;;;;;;;;5101180;27;45502;-77
2022/08/24 03:54:00;;;;;;;;;2.00;2.00;;;;;;;;5100668;27;46660;-77
2022/08/24 03:56:25;;;;;;;;;4.00;3.00;;;;;;;;5100706;27;45407;-77
2022/08/24 03:58:51;;;;;;;;;3.00;3.00;;;;;;;;5100697;27;45291;-77
2022/08/24 04:01:16;;;;;;;;;4.00;2.33;;;;;;;;5100881;27;45385;-77
2022/08/24 04:03:43;;;;;;;;;2.00;2.00;;;;;;;;5099678;27;46428;-77
2022/08/24 04:06:08;;;;;;;;;3.67;2.33;;;;;;;;5100629;27;45323;-77
2022/08/24 04:08:34;;;;;;;;;3.33;3.33;;;;;;;;5100580;27;45453;-77
2022/08/24 04:11:00;;;;;;;;;3.00;3.00;;;;;;;;5100677;27;45405;-77
2022/08/24 04:13:25;;;;;;;;;4.33;4.33;;;;;;;;5100468;27;45557;-78
2022/08/24 04:15:51;;;;;;;;;3.00;3.00;;;;;;;;5100304;27;45290;-77
2022/08/24 04:18:17;;;;;;;;;5.00;4.00;;;;;;;;5100594;27;45486;-77
2022/08/24 04:20:42;;;;;;;;;5.33;4.00;;;;;;;;5099426;27;45315;-77
2022/08/24 04:23:08;;;;;;;;;4.67;3.00;;;;;;;;5100084;27;46142;-77
2022/08/24 04:25:44;;;;;;;;;7.00;4.00;;;;;;;;5100126;27;45539;-76
2022/08/24 04:28:10;;;;;;;;;4.00;4.00;;;;;;;;5100274;27;45283;-77
2022/08/24 04:30:38;;;;;;;;;4.00;4.00;;;;;;;;5100517;27;45454;-77
2022/08/24 04:33:04;;;;;;;;;5.67;5.00;;;;;;;;5099816;27;46647;-77
2022/08/24 04:35:29;;;;;;;;;9.33;3.67;;;;;;;;5099192;27;45310;-76
2022/08/24 04:37:54;;;;;;;;;6.67;5.00;;;;;;;;5099105;27;45362;-77
2022/08/24 04:40:19;;;;;;;;;6.33;5.00;;;;;;;;5100157;27;45389;-77
2022/08/24 04:42:45;;;;;;;;;7.00;4.00;;;;;;;;5099837;27;46191;-77
2022/08/24 04:45:10;;;;;;;;;6.00;4.00;;;;;;;;5099975;27;45219;-77
2022/08/24 04:47:35;;;;;;;;;5.33;5.33;;;;;;;;5099741;27;45376;-77
2022/08/24 04:50:00;;;;;;;;;5.00;5.00;;;;;;;;5100197;27;45194;-77
2022/08/24 04:52:26;;;;;;;;;9.00;5.33;;;;;;;;5099820;27;46452;-74
2022/08/24 04:54:52;;;;;;;;;4.00;4.00;;;;;;;;5098811;27;45379;-77
2022/08/24 04:57:17;;;;;;;;;4.67;4.67;;;;;;;;5099714;27;45336;-77
2022/08/24 04:59:42;;;;;;;;;8.00;4.00;;;;;;;;5100048;27;45393;-78
2022/08/24 05:02:08;;;;;;;;;4.00;4.00;;;;;;;;5099510;27;45382;-78
2022/08/24 05:04:33;;;;;;;;;5.00;4.00;;;;;;;;5099546;27;45342;-78
2022/08/24 05:06:58;;;;;;;;;6.00;4.00;;;;;;;;5099595;27;45337;-77
2022/08/24 05:09:24;;;;;;;;;3.67;2.33;;;;;;;;5099813;27;45469;-79
2022/08/24 05:11:49;;;;;;;;;3.00;3.00;;;;;;;;5098262;27;46984;-76
2022/08/24 05:14:15;;;;;;;;;5.00;3.00;;;;;;;;5098364;27;45513;-77
2022/08/24 05:16:40;;;;;;;;;6.00;5.00;;;;;;;;5099226;27;45318;-77
2022/08/24 05:19:06;;;;;;;;;3.33;3.33;;;;;;;;5099223;27;45520;-77
2022/08/24 05:21:31;;;;;;;;;7.00;4.00;;;;;;;;5098462;27;46197;-76
2022/08/24 05:23:56;;;;;;;;;8.00;8.00;;;;;;;;5099389;27;45441;-77
2022/08/24 05:26:24;;;;;;;;;5.33;5.33;;;;;;;;5099154;27;45233;-76
2022/08/24 05:28:52;;;;;;;;;6.00;4.00;;;;;;;;5098736;27;45304;-77
2022/08/24 05:31:18;;;;;;;;;3.33;3.33;;;;;;;;5098999;27;45353;-76
2022/08/24 05:33:44;;;;;;;;;5.67;5.67;;;;;;;;5099094;27;45251;-77
2022/08/24 05:36:20;;;;;;;;;5.00;5.00;;;;;;;;5099401;27;45363;-74
2022/08/24 05:38:46;;;;;;;;;5.00;5.00;;;;;;;;5099179;27;45232;-74
2022/08/24 05:41:11;;;;;;;;;3.67;3.67;;;;;;;;5098558;27;46256;-74
2022/08/24 05:43:37;;;;;;;;;4.67;4.00;;;;;;;;5098972;27;45377;-74
2022/08/24 05:46:02;;;;;;;;;4.67;4.67;;;;;;;;5097868;27;45347;-75
2022/08/24 05:48:27;;;;;;;;;6.00;6.00;;;;;;;;5099378;27;45218;-74
2022/08/24 05:50:54;;;;;;;;;5.33;4.00;;;;;;;;5098738;27;45607;-74
2022/08/24 05:53:19;;;;;;;;;2.00;2.00;;;;;;;;5098885;27;46169;-74
2022/08/24 05:55:45;;;;;;;;;6.33;4.00;;;;;;;;5098885;27;45453;-74
2022/08/24 05:58:11;;;;;;;;;3.00;3.00;;;;;;;;5098988;27;45657;-74
2022/08/24 06:00:36;;;;;;;;;6.33;5.00;;;;;;;;5098493;27;46495;-74
2022/08/24 06:03:01;;;;;;;;;4.00;4.00;;;;;;;;5097652;27;45363;-74
2022/08/24 06:05:26;;;;;;;;;9.00;5.33;;;;;;;;5098786;27;45235;-74
2022/08/24 06:07:52;;;;;;;;;5.67;5.67;;;;;;;;5098712;27;45391;-74
2022/08/24 06:10:18;;;;;;;;;6.00;6.00;;;;;;;;5098472;27;47280;-74
2022/08/24 06:12:43;;;;;;;;;6.00;4.67;;;;;;;;5098341;27;45362;-74
2022/08/24 06:15:08;;;;;;;;;5.67;5.00;;;;;;;;5098639;27;45254;-74
2022/08/24 06:17:33;;;;;;;;;6.33;6.33;;;;;;;;5098560;27;45493;-74
2022/08/24 06:19:59;;;;;;;;;8.67;6.00;;;;;;;;5097297;27;45580;-74
2022/08/24 06:22:24;;;;;;;;;12.00;9.00;;;;;;;;5098356;27;45372;-74
2022/08/24 06:27:33;;;;;;;;;9.00;8.00;;;;;;;;5098682;27;45446;-74
2022/08/24 06:30:03;;;;;;;;;13.00;13.00;;;;;;;;5098170;27;45328;-74
2022/08/24 06:32:29;;;;;;;;;8.00;6.67;;;;;;;;5098066;27;45376;-74
2022/08/24 06:34:55;;;;;;;;;12.00;10.00;;;;;;;;5098311;27;45497;-74
2022/08/24 06:37:25;;;;;;;;;8.33;8.33;;;;;;;;5097525;27;45429;-74
2022/08/24 06:39:50;;;;;;;;;10.67;9.00;;;;;;;;5098057;27;47219;-74
2022/08/24 06:42:15;;;;;;;;;10.00;10.00;;;;;;;;5097856;27;45417;-74
2022/08/24 06:44:40;;;;;;;;;11.33;8.00;;;;;;;;5098020;27;45264;-75
2022/08/24 06:47:06;;;;;;;;;10.00;7.67;;;;;;;;5098609;27;45342;-74
2022/08/24 06:49:31;;;;;;;;;9.33;8.67;;;;;;;;5097884;27;45480;-74
2022/08/24 06:51:56;;;;;;;;;9.67;9.67;;;;;;;;5098096;27;45480;-74
2022/08/24 06:54:21;;;;;;;;;10.00;9.00;;;;;;;;5078121;27;45565;-74
2022/08/24 06:56:47;;;;;;;;;16.00;11.67;;;;;;;;5077433;28;45366;-74
2022/08/24 06:59:12;;;;;;;;;11.67;11.33;;;;;;;;5080123;28;45341;-75
2022/08/24 07:01:37;;;;;;;;;16.00;14.67;;;;;;;;5080861;28;45362;-74
2022/08/24 07:04:03;;;;;;;;;10.00;9.33;;;;;;;;5081261;28;45356;-74
2022/08/24 07:06:28;;;;;;;;;8.33;8.00;;;;;;;;5081303;28;45279;-74
2022/08/24 07:08:55;;;;;;;;;10.67;7.67;;;;;;;;5080659;28;46251;-74
2022/08/24 07:11:20;;;;;;;;;21.33;21.00;;;;;;;;5098833;27;45544;-74
2022/08/24 07:13:47;;;;;;;;;16.67;16.67;;;;;;;;5101239;27;45647;-74
2022/08/24 07:16:15;;;;;;;;;13.67;11.00;;;;;;;;5101455;27;45353;-74
2022/08/24 07:18:40;;;;;;;;;12.67;12.67;;;;;;;;5100968;27;46288;-74
2022/08/24 07:21:06;;;;;;;;;16.00;10.33;;;;;;;;5100972;27;45768;-74
2022/08/24 07:23:31;;;;;;;;;10.67;9.33;;;;;;;;5101359;27;45279;-74
2022/08/24 07:26:03;;;;;;;;;14.67;11.67;;;;;;;;5101555;27;45323;-74
2022/08/24 07:28:28;;;;;;;;;11.00;11.00;;;;;;;;5099654;27;45546;-74
2022/08/24 07:30:53;;;;;;;;;10.00;9.33;;;;;;;;5101029;27;45366;-74
2022/08/24 07:33:19;;;;;;;;;6.67;6.67;;;;;;;;5101134;27;45343;-74
2022/08/24 07:35:44;;;;;;;;;8.67;7.33;;;;;;;;5101310;27;45450;-74
2022/08/24 07:38:10;;;;;;;;;11.00;7.67;;;;;;;;5100941;27;46287;-74
2022/08/24 07:40:36;;;;;;;;;9.00;8.00;;;;;;;;5100867;27;45366;-74
2022/08/24 07:43:01;;;;;;;;;9.67;8.00;;;;;;;;5100428;27;45421;-74
2022/08/24 07:45:27;;;;;;;;;7.67;6.67;;;;;;;;5100979;27;45539;-74
2022/08/24 07:47:53;;;;;;;;;6.33;5.67;;;;;;;;5100887;27;46253;-74
2022/08/24 07:50:19;;;;;;;;;10.00;7.00;;;;;;;;5082252;27;45615;-73
2022/08/24 07:52:44;;;;;;;;;4.00;4.00;;;;;;;;5100709;27;45289;-73
2022/08/24 07:55:10;;;;;;;;;7.67;6.67;;;;;;;;5100963;27;45232;-72
2022/08/24 07:57:38;;;;;;;;;5.00;5.00;;;;;;;;5100385;27;46416;-74
2022/08/24 08:00:05;;;;;;;;;7.00;5.00;;;;;;;;5100455;27;45329;-73
2022/08/24 08:02:31;;;;;;;;;4.00;2.00;;;;;;;;5099526;27;46747;-73
2022/08/24 08:04:56;;;;;;;;;8.67;5.00;;;;;;;;5100696;27;45464;-73
2022/08/24 08:07:21;;;;;;;;;5.00;5.00;;;;;;;;5100398;27;47219;-72
2022/08/24 08:09:48;;;;;;;;;5.67;4.00;;;;;;;;5099112;27;45424;-72
2022/08/24 08:12:13;;;;;;;;;6.33;6.00;;;;;;;;5100492;27;45253;-73
2022/08/24 08:14:38;;;;;;;;;4.00;4.00;;;;;;;;5100684;27;45261;-72
2022/08/24 08:17:06;;;;;;;;;5.33;4.33;;;;;;;;5100008;27;46997;-72
2022/08/24 08:19:31;;;;;;;;;6.33;4.33;;;;;;;;5099338;27;45454;-73
2022/08/24 08:24:43;;;;;;;;;6.33;4.00;;;;;;;;5100569;27;45227;-73
2022/08/24 08:27:15;;;;;;;;;4.67;4.67;;;;;;;;5100096;27;46047;-71
2022/08/24 08:29:40;;;;;;;;;4.00;4.00;;;;;;;;5100002;27;45187;-72
2022/08/24 08:32:06;;;;;;;;;6.00;5.00;;;;;;;;5100052;27;45276;-73
2022/08/24 08:34:32;;;;;;;;;5.33;3.67;;;;;;;;5100520;27;45339;-72
2022/08/24 08:36:58;;;;;;;;;5.00;5.00;;;;;;;;5101602;27;46139;-70
2022/08/24 08:39:24;;;;;;;;;5.00;5.00;;;;;;;;5108055;27;45481;-72
2022/08/24 08:41:50;;;;;;;;;5.00;5.00;;;;;;;;5100106;27;45523;-72
2022/08/24 08:44:21;;;;;;;;;6.67;5.33;;;;;;;;5100029;27;45407;-72
2022/08/24 08:46:46;;;;;;;;;6.33;5.33;;;;;;;;5100000;27;45334;-72
2022/08/24 08:49:14;;;;;;;;;6.00;6.00;;;;;;;;5099745;27;45368;-71
2022/08/24 08:51:58;;;;;;;;;4.33;4.33;;;;;;;;5099816;27;45302;-73
2022/08/24 08:54:35;;;;;;;;;5.67;5.00;;;;;;;;5098847;27;45643;-73
2022/08/24 08:57:00;;;;;;;;;5.00;5.00;;;;;;;;5099597;27;45766;-72
2022/08/24 08:59:29;;;;;;;;;5.00;4.00;;;;;;;;5099429;27;45241;-76
2022/08/24 09:02:03;;;;;;;;;5.00;5.00;;;;;;;;5099608;27;45404;-77
2022/08/24 09:04:47;;;;;;;;;5.67;5.67;;;;;;;;5100029;27;45228;-80
2022/08/24 09:07:31;;;;;;;;;7.00;7.00;;;;;;;;5099324;27;46375;-73
2022/08/24 09:10:05;;;;;;;;;6.67;6.33;;;;;;;;5098406;27;45481;-71
2022/08/24 09:12:36;;;;;;;;;6.33;6.33;;;;;;;;5099502;27;45482;-72
2022/08/24 09:15:02;;;;;;;;;8.00;5.00;;;;;;;;5099538;27;45476;-72
2022/08/24 09:17:44;;;;;;;;;9.67;9.00;;;;;;;;5099037;27;45318;-73
2022/08/24 09:20:18;;;;;;;;;9.00;6.00;;;;;;;;5099152;27;45212;-71
2022/08/24 09:22:46;;;;;;;;;6.33;6.33;;;;;;;;5099104;27;45694;-73
2022/08/24 09:25:12;;;;;;;;;4.67;4.67;;;;;;;;5099574;27;45406;-73
2022/08/24 09:27:40;;;;;;;;;4.00;4.00;;;;;;;;5097925;27;46396;-71
2022/08/24 09:30:09;;;;;;;;;9.00;6.00;;;;;;;;5099198;27;45375;-70
2022/08/24 09:32:41;;;;;;;;;5.00;5.00;;;;;;;;5099131;27;45319;-73
2022/08/24 09:35:09;;;;;;;;;7.33;5.33;;;;;;;;5099487;27;45381;-78
2022/08/24 09:37:38;;;;;;;;;10.00;7.33;;;;;;;;5098608;27;47225;-71
2022/08/24 09:40:30;;;;;;;;;5.00;5.00;;;;;;;;5098887;27;45742;-75
2022/08/24 09:43:05;;;;;;;;;3.67;3.33;;;;;;;;5094892;27;45432;-74
2022/08/24 09:45:42;;;;;;;;;3.67;3.67;;;;;;;;5098065;27;45330;-76
2022/08/24 09:48:26;;;;;;;;;4.00;4.00;;;;;;;;5098889;27;46428;-70
2022/08/24 09:51:20;;;;;;;;;5.67;4.00;;;;;;;;5098722;27;45284;-77
2022/08/24 09:53:46;;;;;;;;;3.33;3.33;;;;;;;;5098981;27;45437;-78
2022/08/24 09:56:29;;;;;;;;;3.33;3.33;;;;;;;;5098666;27;45256;-70
2022/08/24 09:59:24;;;;;;;;;5.67;4.67;;;;;;;;5098436;27;46779;-73
2022/08/24 10:02:07;;;;;;;;;4.00;4.00;;;;;;;;5079449;27;45503;-73
2022/08/24 10:05:01;;;;;;;;;5.00;5.00;;;;;;;;5095864;27;45247;-69
2022/08/24 10:07:39;;;;;;;;;6.00;3.00;;;;;;;;5096514;27;45336;-70
2022/08/24 10:10:19;;;;;;;;;6.00;6.00;;;;;;;;5096926;27;45470;-76
2022/08/24 10:12:45;;;;;;;;;4.00;4.00;;;;;;;;5078140;28;45526;-71
2022/08/24 10:15:19;;;;;;;;;5.67;4.33;;;;;;;;5077522;28;45351;-73
2022/08/24 10:17:44;;;;;;;;;4.00;4.00;;;;;;;;5077951;28;45348;-72
2022/08/24 10:20:09;;;;;;;;;5.67;4.67;;;;;;;;5079951;27;46592;-73
2022/08/24 10:22:34;;;;;;;;;7.00;4.67;;;;;;;;5098385;27;45251;-74
2022/08/24 10:25:15;;;;;;;;;3.67;3.00;;;;;;;;5098380;27;45385;-73
2022/08/24 10:28:04;;;;;;;;;6.00;4.00;;;;;;;;5098542;27;45540;-73
2022/08/24 10:30:39;;;;;;;;;5.67;3.67;;;;;;;;5086763;27;45541;-79
2022/08/24 10:33:12;;;;;;;;;2.67;2.33;;;;;;;;5097211;27;45362;-73
2022/08/24 10:35:54;;;;;;;;;4.00;4.00;;;;;;;;5098204;27;45471;-72
2022/08/24 10:41:22;;;;;;;;;3.33;2.00;;;;;;;;5097882;27;45727;-77
2022/08/24 10:43:47;;;;;;;;;3.67;3.67;;;;;;;;5097784;27;45239;-83
2022/08/24 10:46:18;;;;;;;;;5.33;2.00;;;;;;;;5098371;27;45191;-78
2022/08/24 10:49:04;;;;;;;;;4.00;2.33;;;;;;;;5098342;27;45314;-74
2022/08/24 10:51:39;;;;;;;;;2.00;2.00;;;;;;;;5097838;27;46105;-76
2022/08/24 10:54:05;;;;;;;;;3.00;1.67;;;;;;;;5096863;27;45487;-75
2022/08/24 10:56:38;;;;;;;;;1.67;1.67;;;;;;;;5098019;27;45273;-76
2022/08/24 10:59:16;;;;;;;;;2.67;2.67;;;;;;;;5097920;27;45462;-77
2022/08/24 11:01:57;;;;;;;;;3.00;2.67;;;;;;;;5097614;27;45326;-74
2022/08/24 11:04:27;;;;;;;;;3.67;3.67;;;;;;;;5097711;27;45430;-74
2022/08/24 11:07:04;;;;;;;;;5.67;2.67;;;;;;;;5098027;27;45303;-76
2022/08/24 11:09:50;;;;;;;;;3.00;3.00;;;;;;;;5078592;27;45194;-76
2022/08/24 11:12:28;;;;;;;;;3.67;3.67;;;;;;;;5102285;27;47037;-73
2022/08/24 11:14:55;;;;;;;;;4.00;3.33;;;;;;;;5101995;27;45355;-73
2022/08/24 11:17:22;;;;;;;;;3.33;3.00;;;;;;;;5108744;27;45940;-80
2022/08/24 11:19:48;;;;;;;;;2.67;2.67;;;;;;;;5097942;27;45215;-82
2022/08/24 11:22:26;;;;;;;;;6.00;2.67;;;;;;;;5097376;27;45433;-76
2022/08/24 11:24:52;;;;;;;;;2.67;2.67;;;;;;;;5097607;27;45154;-77
2022/08/24 11:27:23;;;;;;;;;2.33;2.33;;;;;;;;5096782;27;45371;-75
2022/08/24 11:29:49;;;;;;;;;1.67;1.67;;;;;;;;5097600;27;45276;-76
2022/08/24 11:32:29;;;;;;;;;2.67;2.67;;;;;;;;5097352;27;45428;-76
2022/08/24 11:34:59;;;;;;;;;8.33;6.67;;;;;;;;5097484;27;45340;-78
2022/08/24 11:37:30;;;;;;;;;3.67;3.67;;;;;;;;5097631;27;45263;-71
2022/08/24 11:39:55;;;;;;;;;5.33;5.33;;;;;;;;5097459;27;45303;-74
2022/08/24 11:42:21;;;;;;;;;3.00;3.00;;;;;;;;5097256;27;46096;-77
2022/08/24 11:44:54;;;;;;;;;2.00;2.00;;;;;;;;5098124;27;45359;-72
2022/08/24 11:47:25;;;;;;;;;4.00;4.00;;;;;;;;5101069;27;45294;-77
2022/08/24 11:50:06;;;;;;;;;2.33;2.33;;;;;;;;5101005;27;45201;-73
2022/08/24 11:52:34;;;;;;;;;2.00;2.00;;;;;;;;5100674;27;47087;-78
2022/08/24 11:54:59;;;;;;;;;7.00;2.33;;;;;;;;5100698;27;45310;-78
2022/08/24 11:57:27;;;;;;;;;4.00;4.00;;;;;;;;5100819;27;45457;-71
2022/08/24 12:00:04;;;;;;;;;3.00;3.00;;;;;;;;5100964;27;45384;-73
2022/08/24 12:02:29;;;;;;;;;4.00;4.00;;;;;;;;5102678;27;46050;-74
2022/08/24 12:05:30;;;;;;;;;5.00;3.00;;;;;;;;5099288;27;45364;-72
2022/08/24 12:07:58;;;;;;;;;2.33;2.33;;;;;;;;5017705;28;45514;-70
2022/08/24 12:10:36;;;;;;;;;3.00;3.00;;;;;;;;5017746;28;45383;-75
2022/08/24 12:13:14;;;;;;;;;37.00;34.00;;;;;;;;5017373;28;45330;-75
2022/08/24 12:15:45;;;;;;;;;1.00;1.00;;;;;;;;5017135;28;45434;-75
2022/08/24 12:18:23;;;;;;;;;3.67;3.67;;;;;;;;5017459;28;45459;-75
2022/08/24 12:20:49;;;;;;;;;4.00;4.00;;;;;;;;5016560;28;45366;-76
2022/08/24 12:23:20;;;;;;;;;2.00;2.00;;;;;;;;5016993;28;46167;-77
2022/08/24 12:26:01;;;;;;;;;5.00;2.33;;;;;;;;5017332;28;45519;-76
2022/08/24 12:28:45;;;;;;;;;2.67;2.67;;;;;;;;5017297;28;45485;-77
2022/08/24 12:31:13;;;;;;;;;3.00;3.00;;;;;;;;5017297;28;45359;-77
2022/08/24 12:33:42;;;;;;;;;5.00;4.67;;;;;;;;5016946;28;46719;-76
2022/08/24 12:36:15;;;;;;;;;8.67;6.33;;;;;;;;5016909;28;45209;-76
2022/08/24 12:38:46;;;;;;;;;4.67;4.67;;;;;;;;5016057;28;45398;-77
2022/08/24 12:41:23;;;;;;;;;7.33;5.00;;;;;;;;5033723;27;45510;-77
2022/08/24 12:43:54;;;;;;;;;3.00;3.00;;;;;;;;5099749;27;46046;-75
2022/08/24 12:46:21;;;;;;;;;3.33;3.00;;;;;;;;5099790;27;45502;-76
2022/08/24 12:48:46;;;;;;;;;2.00;2.00;;;;;;;;5099976;27;45292;-77
2022/08/24 12:51:30;;;;;;;;;4.00;2.67;;;;;;;;5100208;27;45273;-76
2022/08/24 12:54:07;;;;;;;;;2.00;2.00;;;;;;;;5098559;27;45341;-76
2022/08/24 12:56:32;;;;;;;;;4.00;3.00;;;;;;;;5098732;27;45429;-76
2022/08/24 12:59:03;;;;;;;;;3.00;3.00;;;;;;;;5099811;27;45432;-76
2022/08/24 13:01:32;;;;;;;;;3.00;3.00;;;;;;;;5099934;27;45326;-77
2022/08/24 13:04:12;;;;;;;;;3.33;3.33;;;;;;;;5099361;27;46190;-76
2022/08/24 13:06:44;;;;;;;;;9.00;7.00;;;;;;;;5099454;27;45326;-76
2022/08/24 13:09:14;;;;;;;;;3.00;3.00;;;;;;;;5098540;27;45350;-76
2022/08/24 13:11:39;;;;;;;;;2.00;2.00;;;;;;;;5099663;27;45609;-76
2022/08/24 13:14:11;;;;;;;;;2.00;2.00;;;;;;;;5099196;27;47269;-75
2022/08/24 13:16:48;;;;;;;;;3.00;3.00;;;;;;;;5099102;27;45335;-75
2022/08/24 13:19:13;;;;;;;;;3.00;2.00;;;;;;;;5099612;27;45280;-76
2022/08/24 13:21:41;;;;;;;;;4.00;2.67;;;;;;;;5099404;27;45215;-76
2022/08/24 13:24:37;;;;;;;;;3.67;2.67;;;;;;;;5098295;27;48365;-76
2022/08/24 13:27:11;;;;;;;;;3.67;3.00;;;;;;;;4996258;28;45355;-76
2022/08/24 13:29:37;;;;;;;;;3.00;3.00;;;;;;;;4996657;28;45388;-75
2022/08/24 13:32:04;;;;;;;;;3.00;3.00;;;;;;;;4996468;28;45520;-75
2022/08/24 13:34:43;;;;;;;;;1.67;1.67;;;;;;;;4996267;28;45462;-76
2022/08/24 13:37:14;;;;;;;;;1.67;1.67;;;;;;;;4996362;28;45382;-76
2022/08/24 13:39:39;;;;;;;;;2.00;2.00;;;;;;;;4996511;28;45427;-76
2022/08/24 13:42:11;;;;;;;;;4.00;2.33;;;;;;;;5008577;28;45444;-77
2022/08/24 13:44:48;;;;;;;;;4.00;3.67;;;;;;;;5016076;28;46625;-75
2022/08/24 13:47:14;;;;;;;;;4.00;4.00;;;;;;;;5015897;28;45528;-76
2022/08/24 13:49:39;;;;;;;;;1.67;1.67;;;;;;;;5015997;28;45395;-77
2022/08/24 13:52:04;;;;;;;;;1.00;1.00;;;;;;;;5016492;28;45469;-75
2022/08/24 13:54:36;;;;;;;;;2.00;2.00;;;;;;;;5015927;28;47274;-75
2022/08/24 13:57:13;;;;;;;;;34.50;32.75;;;;;;;;5014614;28;45421;-76
2022/08/24 13:59:41;;;;;;;;;4.00;3.33;;;;;;;;5015932;28;45350;-76
2022/08/24 14:02:23;;;;;;;;;3.00;2.67;;;;;;;;5015920;28;45463;-77
2022/08/24 14:04:51;;;;;;;;;2.33;2.00;;;;;;;;5078038;28;45613;-77
2022/08/24 14:07:26;;;;;;;;;3.00;3.00;;;;;;;;5077253;28;45392;-77
2022/08/24 14:10:07;;;;;;;;;3.00;3.00;;;;;;;;5078288;28;45268;-76
2022/08/24 14:12:33;;;;;;;;;4.00;3.00;;;;;;;;5082873;27;45406;-76
2022/08/24 14:15:17;;;;;;;;;5.67;3.00;;;;;;;;5098459;27;45461;-76
2022/08/24 14:17:51;;;;;;;;;3.00;3.00;;;;;;;;5097820;27;45492;-74
2022/08/24 14:20:19;;;;;;;;;3.00;2.00;;;;;;;;5098315;27;45423;-76
2022/08/24 14:23:01;;;;;;;;;2.33;2.33;;;;;;;;5098662;27;45295;-76
2022/08/24 14:25:32;;;;;;;;;2.33;2.33;;;;;;;;5098114;27;46984;-76
2022/08/24 14:27:57;;;;;;;;;2.67;2.67;;;;;;;;5097759;27;45488;-76
2022/08/24 14:30:22;;;;;;;;;3.67;2.67;;;;;;;;5097445;27;45355;-76
2022/08/24 14:33:00;;;;;;;;;2.00;2.00;;;;;;;;5098351;27;45474;-74
2022/08/24 14:35:28;;;;;;;;;2.00;2.00;;;;;;;;5098159;27;45417;-76
2022/08/24 14:38:00;;;;;;;;;1.67;1.67;;;;;;;;5098152;27;45407;-77
2022/08/24 14:40:28;;;;;;;;;1.00;1.00;;;;;;;;5098144;27;45339;-77
2022/08/24 14:43:12;;;;;;;;;2.00;2.00;;;;;;;;5098122;27;45358;-77
2022/08/24 14:45:51;;;;;;;;;2.00;2.00;;;;;;;;5096807;27;46102;-76
2022/08/24 14:48:16;;;;;;;;;2.00;2.00;;;;;;;;5098087;27;45335;-75
2022/08/24 14:50:47;;;;;;;;;2.33;2.00;;;;;;;;5098199;27;45728;-76
2022/08/24 14:53:25;;;;;;;;;1.67;1.67;;;;;;;;5098255;27;45472;-76
2022/08/24 14:56:02;;;;;;;;;1.00;1.00;;;;;;;;5079311;27;46506;-76
2022/08/24 14:58:47;;;;;;;;;2.33;2.33;;;;;;;;5098091;27;45318;-75
2022/08/24 15:01:31;;;;;;;;;1.00;1.00;;;;;;;;5077726;27;45348;-76
2022/08/24 15:03:56;;;;;;;;;1.33;1.00;;;;;;;;5098095;27;45433;-76